Terminal Aerodrome Forecast
Issued by NWS

Home | Current Version | Previous Version | Text Only | Print | Product List | Glossary On
Versions: 1 2 3 4 5 6 7 8 9 10 11 12 13 14
000
FTUS42 TJSJ 211100 RRA
TAFISX
TAF
TISX 211142Z 2112/2212 04007KT P6SM FEW030
     FM211300 08012KT P6SM SCT035
     FM212300 05006KT P6SM VCSH FEW030
      AMD NOT SKED=

USA.gov is the U.S. government's official web portal to all federal, state and local government web resources and services.